Time;durP1;ratioP1;P1;durP2;ratioP2;P2;SDS_P1;SDS_P2;PMS_P1;PMS_P2;Temp;Humidity;BMP_temperature;BMP_pressure;BME280_temperature;BME280_humidity;BME280_pressure;Samples;Min_cycle;Max_cycle;Signal;HPM_P1;HPM_P2
2023/01/27 00:00:35;;;;;;;15.53;9.40;;;0.50;98.10;;;;;;5029003;28;20203;-86
2023/01/27 00:03:02;;;;;;;14.20;9.40;;;0.40;98.40;;;;;;5025132;28;20226;-85
2023/01/27 00:05:29;;;;;;;14.43;9.13;;;0.40;99.00;;;;;;5029009;28;20245;-86
2023/01/27 00:07:57;;;;;;;14.17;8.73;;;0.40;98.60;;;;;;5030551;28;20648;-86
2023/01/27 00:10:26;;;;;;;15.57;8.77;;;0.40;98.40;;;;;;5034306;28;20210;-87
2023/01/27 00:15:38;;;;;;;15.03;9.23;;;0.40;98.60;;;;;;5031663;28;20201;-87
2023/01/27 00:18:05;;;;;;;14.37;8.97;;;0.40;99.00;;;;;;5027590;28;20210;-87
2023/01/27 00:26:07;;;;;;;13.23;8.70;;;0.60;99.10;;;;;;5024708;28;20568;-87
2023/01/27 00:28:33;;;;;;;14.50;8.73;;;0.60;99.20;;;;;;5024903;28;20218;-87
2023/01/27 00:31:00;;;;;;;13.73;8.73;;;0.50;99.00;;;;;;5025056;28;20199;-86
2023/01/27 00:33:27;;;;;;;15.33;9.57;;;0.40;99.30;;;;;;5026180;28;20211;-86
2023/01/27 00:35:58;;;;;;;15.97;9.67;;;0.30;99.20;;;;;;5031612;28;20200;-86
2023/01/27 00:38:26;;;;;;;18.20;9.97;;;0.30;99.80;;;;;;5030422;28;20693;-86
2023/01/27 00:43:39;;;;;;;16.10;9.40;;;0.30;99.90;;;;;;5023148;28;20573;-86
2023/01/27 00:46:06;;;;;;;14.97;9.37;;;0.30;99.90;;;;;;5024246;28;20655;-87
2023/01/27 00:48:32;;;;;;;15.07;8.73;;;0.40;99.90;;;;;;5025302;28;20244;-86
2023/01/27 00:50:59;;;;;;;14.63;9.03;;;0.50;99.90;;;;;;5024683;28;20198;-87
2023/01/27 00:53:26;;;;;;;15.70;8.60;;;0.40;99.40;;;;;;5027301;28;20199;-87
2023/01/27 00:55:53;;;;;;;13.47;8.20;;;0.30;99.40;;;;;;5030683;28;20202;-86
2023/01/27 00:58:21;;;;;;;15.50;9.03;;;0.30;99.70;;;;;;5028246;28;20194;-87
2023/01/27 01:00:49;;;;;;;12.00;7.83;;;0.30;99.70;;;;;;5022031;28;20314;-86
2023/01/27 01:03:16;;;;;;;13.33;8.63;;;0.40;99.30;;;;;;5028894;28;20218;-86
2023/01/27 01:05:43;;;;;;;12.00;7.93;;;0.40;99.30;;;;;;5025825;28;20206;-86
2023/01/27 01:08:09;;;;;;;11.30;7.60;;;0.30;99.30;;;;;;5018181;28;20211;-86
2023/01/27 01:10:37;;;;;;;12.20;7.77;;;0.20;99.30;;;;;;5021155;28;20195;-86
2023/01/27 01:13:06;;;;;;;13.33;8.63;;;0.20;99.80;;;;;;5027383;28;20753;-87
2023/01/27 01:15:35;;;;;;;14.50;9.33;;;0.10;99.90;;;;;;5012574;28;20226;-86
2023/01/27 01:18:04;;;;;;;13.87;8.53;;;0.20;99.90;;;;;;5029805;28;20207;-86
2023/01/27 01:20:35;;;;;;;10.80;6.73;;;0.20;99.90;;;;;;5018018;28;20214;-86
2023/01/27 01:23:02;;;;;;;11.47;6.27;;;0.20;99.90;;;;;;5024712;28;20238;-87
2023/01/27 01:25:29;;;;;;;9.40;6.33;;;0.20;99.90;;;;;;5026967;28;20207;-86
2023/01/27 01:27:56;;;;;;;9.60;6.37;;;0.20;99.60;;;;;;5031642;28;20201;-86
2023/01/27 01:30:25;;;;;;;11.37;5.90;;;0.20;99.30;;;;;;5018812;28;20214;-85
2023/01/27 01:32:52;;;;;;;8.23;5.70;;;0.20;99.30;;;;;;5024716;28;20207;-86
2023/01/27 01:35:20;;;;;;;10.40;6.77;;;0.20;99.20;;;;;;5030109;28;20198;-86
2023/01/27 01:37:47;;;;;;;9.37;6.27;;;0.20;99.20;;;;;;5030244;28;20206;-87
2023/01/27 01:40:14;;;;;;;9.20;6.10;;;0.30;99.20;;;;;;5026806;28;20573;-86
2023/01/27 01:42:56;;;;;;;10.43;6.53;;;0.40;99.30;;;;;;5024854;28;20230;-86
2023/01/27 01:45:51;;;;;;;9.97;6.20;;;0.50;98.60;;;;;;5026346;28;20203;-86
2023/01/27 01:48:25;;;;;;;12.03;6.97;;;0.50;98.50;;;;;;5028287;28;20194;-86
2023/01/27 01:50:57;;;;;;;13.00;6.50;;;0.40;98.60;;;;;;5032368;28;20203;-86
2023/01/27 01:53:30;;;;;;;12.60;7.10;;;0.40;99.00;;;;;;5028438;28;20194;-87
2023/01/27 01:55:58;;;;;;;10.13;7.03;;;0.50;98.90;;;;;;5029290;28;20202;-87
2023/01/27 01:58:27;;;;;;;10.47;6.87;;;0.60;98.60;;;;;;5032859;28;20199;-86
2023/01/27 02:00:55;;;;;;;10.13;6.53;;;0.50;98.50;;;;;;5033347;28;20543;-86
2023/01/27 02:03:23;;;;;;;10.37;6.73;;;0.40;98.40;;;;;;5028747;28;20223;-86
2023/01/27 02:05:52;;;;;;;10.50;7.33;;;0.30;98.80;;;;;;5026983;28;20195;-86
2023/01/27 02:08:27;;;;;;;10.57;6.40;;;0.30;99.20;;;;;;5020798;28;20203;-86
2023/01/27 02:10:54;;;;;;;10.57;7.27;;;0.40;99.20;;;;;;5025989;28;20203;-86
2023/01/27 02:13:22;;;;;;;10.27;6.53;;;0.40;98.70;;;;;;5023261;28;20206;-86
2023/01/27 02:15:51;;;;;;;9.27;6.53;;;0.40;98.60;;;;;;5026887;28;20210;-86
2023/01/27 02:18:18;;;;;;;8.50;5.77;;;0.40;98.80;;;;;;5027076;28;20194;-86
2023/01/27 02:20:47;;;;;;;10.63;6.73;;;0.40;98.30;;;;;;5030881;28;20202;-86
2023/01/27 02:23:27;;;;;;;10.63;6.77;;;0.30;98.50;;;;;;5021740;28;20226;-87
2023/01/27 02:26:00;;;;;;;11.00;6.70;;;0.30;98.80;;;;;;5022861;28;20194;-86
2023/01/27 02:28:28;;;;;;;13.20;7.80;;;0.30;98.80;;;;;;5024610;28;20203;-86
2023/01/27 02:30:55;;;;;;;11.73;6.97;;;0.40;98.80;;;;;;5021284;28;20206;-86
2023/01/27 02:33:22;;;;;;;13.10;7.20;;;0.30;99.30;;;;;;5028304;28;20210;-86
2023/01/27 02:35:57;;;;;;;10.13;7.00;;;0.30;99.20;;;;;;5028177;28;20202;-86
2023/01/27 02:38:25;;;;;;;9.53;5.87;;;0.30;99.30;;;;;;5022569;28;20229;-86
2023/01/27 02:41:00;;;;;;;11.50;6.73;;;0.30;99.00;;;;;;5021905;28;20207;-86
2023/01/27 02:43:27;;;;;;;9.60;6.07;;;0.30;98.70;;;;;;5027893;28;20231;-86
2023/01/27 02:45:54;;;;;;;10.77;6.20;;;0.60;98.20;;;;;;5028508;28;20210;-86
2023/01/27 02:48:21;;;;;;;10.97;6.97;;;0.60;97.90;;;;;;5028971;28;20202;-86
2023/01/27 02:50:47;;;;;;;10.07;6.37;;;0.60;97.70;;;;;;5028413;28;20198;-86
2023/01/27 02:53:15;;;;;;;11.30;6.83;;;0.60;97.80;;;;;;5026339;28;20206;-86
2023/01/27 02:55:41;;;;;;;11.50;7.33;;;0.60;98.20;;;;;;5022803;28;20662;-86
2023/01/27 02:58:10;;;;;;;10.63;7.13;;;0.60;98.00;;;;;;5028640;28;20199;-87
2023/01/27 03:00:36;;;;;;;9.87;6.67;;;0.60;98.10;;;;;;5016099;28;20199;-86
2023/01/27 03:03:03;;;;;;;9.03;6.23;;;0.40;98.10;;;;;;5016467;28;20624;-86
2023/01/27 03:05:31;;;;;;;8.07;6.00;;;0.40;98.30;;;;;;5027676;28;20230;-86
2023/01/27 03:07:57;;;;;;;10.13;6.67;;;0.30;98.80;;;;;;5023203;28;20237;-86
2023/01/27 03:10:24;;;;;;;8.00;5.90;;;0.20;98.60;;;;;;5024827;28;20203;-86
2023/01/27 03:12:51;;;;;;;9.00;6.03;;;0.20;99.20;;;;;;5022921;28;20648;-86
2023/01/27 03:18:10;;;;;;;9.00;5.77;;;0.30;99.20;;;;;;5022101;28;20208;-86
2023/01/27 03:20:37;;;;;;;8.23;5.77;;;0.30;99.20;;;;;;5025502;28;20214;-86
2023/01/27 03:23:06;;;;;;;7.57;5.67;;;0.20;99.20;;;;;;5022489;28;20231;-85
2023/01/27 03:25:33;;;;;;;7.73;5.70;;;0.20;99.20;;;;;;5030270;28;20218;-87
2023/01/27 03:28:00;;;;;;;9.37;6.50;;;0.10;99.20;;;;;;5040007;28;20213;-86
2023/01/27 03:30:29;;;;;;;11.90;7.00;;;0.10;99.50;;;;;;5038752;28;20202;-86
2023/01/27 03:32:56;;;;;;;8.87;6.23;;;0.10;99.60;;;;;;5037351;28;20278;-86
2023/01/27 03:35:22;;;;;;;9.03;5.90;;;0.10;99.20;;;;;;5011082;28;20214;-86
2023/01/27 03:46:29;;;;;;;8.43;6.27;;;-0.10;99.50;;;;;;5026422;28;20193;-86
2023/01/27 03:48:56;;;;;;;8.93;5.77;;;0.00;99.40;;;;;;5027001;28;20213;-85
2023/01/27 03:51:24;;;;;;;7.93;5.80;;;-0.10;99.50;;;;;;5015216;28;20203;-85
2023/01/27 03:53:52;;;;;;;8.63;5.47;;;-0.10;99.60;;;;;;5020413;28;20194;-85
2023/01/27 03:56:21;;;;;;;9.37;6.30;;;-0.10;99.90;;;;;;5020114;28;20207;-85
2023/01/27 03:58:49;;;;;;;9.13;6.30;;;-0.10;99.90;;;;;;5022053;28;20211;-85
2023/01/27 04:01:19;;;;;;;9.20;6.43;;;-0.10;99.80;;;;;;5023112;28;20191;-85
2023/01/27 04:09:20;;;;;;;9.20;6.27;;;-0.20;99.90;;;;;;5022356;28;20256;-85
2023/01/27 04:11:55;;;;;;;9.60;6.37;;;-0.20;99.90;;;;;;5028572;28;20218;-85
2023/01/27 04:14:23;;;;;;;10.67;6.63;;;-0.20;99.90;;;;;;5030492;28;20205;-85
2023/01/27 04:16:53;;;;;;;11.10;6.57;;;-0.20;99.90;;;;;;5029327;28;20202;-86
2023/01/27 04:19:21;;;;;;;11.17;7.13;;;-0.20;99.90;;;;;;5022323;28;20206;-85
2023/01/27 04:21:48;;;;;;;11.27;7.20;;;-0.20;99.90;;;;;;5022547;28;20546;-85
2023/01/27 04:24:23;;;;;;;12.17;7.57;;;-0.20;99.80;;;;;;5030216;28;20226;-85
2023/01/27 04:26:53;;;;;;;12.47;7.80;;;-0.20;99.90;;;;;;5029572;28;20256;-85
2023/01/27 04:29:21;;;;;;;11.87;7.20;;;-0.20;99.90;;;;;;5024188;28;20201;-85
2023/01/27 04:31:48;;;;;;;13.57;7.77;;;-0.30;99.90;;;;;;5022769;28;20203;-85
2023/01/27 04:34:17;;;;;;;12.73;7.60;;;-0.30;99.90;;;;;;5029653;28;20206;-85
2023/01/27 04:36:44;;;;;;;13.97;7.80;;;-0.30;99.90;;;;;;5023735;28;20199;-86
2023/01/27 04:39:11;;;;;;;14.37;8.43;;;-0.30;99.90;;;;;;5028174;28;20203;-85
2023/01/27 04:41:38;;;;;;;14.40;8.37;;;-0.20;99.90;;;;;;5030395;28;20230;-85
2023/01/27 04:44:06;;;;;;;11.57;7.23;;;-0.20;99.70;;;;;;5026668;28;20697;-85
2023/01/27 04:46:34;;;;;;;12.43;7.17;;;-0.20;99.80;;;;;;5024586;28;20214;-85
2023/01/27 04:49:01;;;;;;;13.40;7.90;;;-0.20;99.40;;;;;;5036844;28;20198;-85
2023/01/27 04:51:30;;;;;;;14.33;7.00;;;-0.30;99.40;;;;;;5025282;28;20198;-85
2023/01/27 04:53:57;;;;;;;11.70;7.53;;;-0.20;99.50;;;;;;5029809;28;20229;-85
2023/01/27 04:56:26;;;;;;;13.50;7.47;;;-0.10;99.80;;;;;;5032674;28;20211;-85
2023/01/27 04:58:54;;;;;;;10.23;6.57;;;0.00;99.20;;;;;;5030892;28;20206;-85
2023/01/27 05:01:21;;;;;;;10.83;7.07;;;0.00;99.20;;;;;;5025269;28;20222;-86
2023/01/27 05:03:48;;;;;;;15.70;7.80;;;-0.10;99.20;;;;;;5023149;28;20682;-85
2023/01/27 05:06:15;;;;;;;13.73;6.73;;;-0.10;99.20;;;;;;5020780;28;20758;-85
2023/01/27 05:08:44;;;;;;;11.23;7.10;;;-0.10;99.20;;;;;;5020173;28;20210;-85
2023/01/27 05:11:12;;;;;;;10.70;6.73;;;-0.10;99.20;;;;;;5031645;28;20274;-85
2023/01/27 05:13:39;;;;;;;12.77;7.90;;;-0.20;99.10;;;;;;5025660;28;20581;-85
2023/01/27 05:16:12;;;;;;;12.27;8.00;;;-0.10;99.20;;;;;;5019597;28;20782;-85
2023/01/27 05:18:40;;;;;;;13.50;7.10;;;-0.10;99.20;;;;;;5001711;28;20195;-85
2023/01/27 05:21:08;;;;;;;14.40;8.10;;;-0.20;99.10;;;;;;5028108;28;20281;-85
2023/01/27 05:23:35;;;;;;;12.33;8.07;;;-0.20;99.40;;;;;;5030653;28;20678;-85
2023/01/27 05:26:05;;;;;;;13.00;6.47;;;-0.20;99.60;;;;;;5015444;28;20273;-85
2023/01/27 05:28:32;;;;;;;11.90;6.57;;;-0.10;99.50;;;;;;5026233;28;20190;-85
2023/01/27 05:31:04;;;;;;;13.10;6.60;;;-0.10;99.50;;;;;;5018711;28;21043;-85
2023/01/27 05:33:31;;;;;;;12.77;6.73;;;-0.20;99.10;;;;;;5019522;28;20219;-85
2023/01/27 05:36:00;;;;;;;11.93;6.70;;;-0.10;99.20;;;;;;5017527;28;20206;-85
2023/01/27 05:38:26;;;;;;;13.80;7.97;;;-0.10;99.40;;;;;;5020789;28;20270;-86
2023/01/27 05:40:59;;;;;;;14.27;8.00;;;-0.20;99.10;;;;;;5025363;28;20196;-86
2023/01/27 05:43:28;;;;;;;11.27;7.30;;;-0.20;99.40;;;;;;5022366;28;20214;-86
2023/01/27 05:46:03;;;;;;;14.00;8.23;;;-0.10;99.60;;;;;;5026456;28;20198;-86
2023/01/27 05:48:30;;;;;;;15.23;8.87;;;-0.10;99.50;;;;;;5021522;28;20198;-86
2023/01/27 05:50:58;;;;;;;14.90;8.50;;;-0.20;99.60;;;;;;5025112;28;20218;-86
2023/01/27 05:53:25;;;;;;;14.73;8.37;;;-0.10;99.90;;;;;;5027372;28;20209;-86
2023/01/27 05:55:54;;;;;;;16.97;9.27;;;-0.10;99.90;;;;;;5027133;28;20198;-87
2023/01/27 05:58:22;;;;;;;15.07;8.17;;;-0.10;99.90;;;;;;5023506;28;20222;-86
2023/01/27 06:00:51;;;;;;;14.70;8.50;;;0.00;99.90;;;;;;5036388;28;20203;-87
2023/01/27 06:03:18;;;;;;;15.67;8.23;;;0.00;99.90;;;;;;5001017;28;20215;-86
2023/01/27 06:05:52;;;;;;;14.70;8.33;;;0.00;99.80;;;;;;5026109;28;20222;-87
2023/01/27 06:08:20;;;;;;;13.17;8.07;;;-0.10;99.60;;;;;;5027317;28;20197;-90
2023/01/27 06:10:46;;;;;;;16.67;8.33;;;-0.10;99.50;;;;;;5025351;28;20206;-86
2023/01/27 06:13:13;;;;;;;15.23;8.70;;;0.00;99.50;;;;;;5004128;28;20203;-85
2023/01/27 06:15:42;;;;;;;14.23;7.90;;;0.00;99.50;;;;;;5022895;28;20199;-86
2023/01/27 06:18:10;;;;;;;14.43;8.37;;;0.00;99.20;;;;;;5021815;28;20229;-84
2023/01/27 06:20:38;;;;;;;17.80;9.53;;;-0.10;99.20;;;;;;5020313;28;20198;-85
2023/01/27 06:23:06;;;;;;;17.37;9.30;;;-0.20;99.50;;;;;;5019215;28;20231;-85
2023/01/27 06:25:36;;;;;;;17.17;9.63;;;-0.20;99.90;;;;;;5016488;28;20218;-86
2023/01/27 06:28:03;;;;;;;17.87;9.73;;;-0.10;99.90;;;;;;5023829;28;20210;-86
2023/01/27 06:30:30;;;;;;;16.43;8.93;;;-0.10;99.90;;;;;;5017877;28;21063;-86
2023/01/27 06:32:57;;;;;;;18.10;9.50;;;-0.10;99.90;;;;;;5021815;28;20261;-89
2023/01/27 06:35:26;;;;;;;19.03;9.80;;;0.00;99.90;;;;;;5158907;22;20248;-87
2023/01/27 06:37:52;;;;;;;16.63;9.77;;;0.00;99.90;;;;;;5060672;28;20210;-83
2023/01/27 06:40:20;;;;;;;15.23;9.27;;;-0.10;99.90;;;;;;5060768;28;20537;-92
2023/01/27 06:42:46;;;;;;;15.73;9.47;;;0.00;99.90;;;;;;5057884;28;20217;-87
2023/01/27 06:45:14;;;;;;;16.87;9.30;;;0.00;99.90;;;;;;5065500;28;20209;-85
2023/01/27 06:47:41;;;;;;;18.10;9.60;;;0.00;99.90;;;;;;5054471;28;20205;-85
2023/01/27 06:50:09;;;;;;;19.30;9.50;;;0.10;99.90;;;;;;5065009;28;20564;-85
2023/01/27 06:52:38;;;;;;;18.97;10.70;;;0.10;99.90;;;;;;5061222;28;20212;-85
2023/01/27 06:55:05;;;;;;;16.53;9.30;;;0.10;99.90;;;;;;5066056;28;20201;-87
2023/01/27 06:57:32;;;;;;;17.33;9.50;;;0.10;99.90;;;;;;5061714;28;20202;-86
2023/01/27 06:59:59;;;;;;;19.97;10.17;;;0.10;99.80;;;;;;5065207;28;20645;-85
2023/01/27 07:02:26;;;;;;;20.17;10.43;;;0.20;99.50;;;;;;5064563;28;20197;-86
2023/01/27 07:04:52;;;;;;;18.60;10.73;;;0.20;99.30;;;;;;5069998;28;20236;-84
2023/01/27 07:07:19;;;;;;;20.00;9.77;;;0.20;99.50;;;;;;5085140;28;20185;-86
2023/01/27 07:09:47;;;;;;;16.63;10.17;;;0.20;99.20;;;;;;5080428;28;20833;-87
2023/01/27 07:12:14;;;;;;;19.03;10.77;;;0.20;99.20;;;;;;5068457;28;20207;-86
2023/01/27 07:14:41;;;;;;;21.73;10.87;;;0.20;99.50;;;;;;5056160;28;20197;-86
2023/01/27 07:17:08;;;;;;;18.40;10.07;;;0.20;99.20;;;;;;5049514;28;20608;-87
2023/01/27 07:19:35;;;;;;;19.20;10.23;;;0.10;99.20;;;;;;5053148;28;20509;-86
2023/01/27 07:22:02;;;;;;;18.20;10.60;;;0.10;99.20;;;;;;5062639;28;20566;-86
2023/01/27 07:24:29;;;;;;;22.30;10.90;;;0.20;99.60;;;;;;5061526;28;20229;-86
2023/01/27 07:26:57;;;;;;;20.47;10.33;;;0.20;99.40;;;;;;5060539;28;20205;-86
2023/01/27 07:29:24;;;;;;;20.47;10.47;;;0.10;99.50;;;;;;5061493;28;20197;-86
2023/01/27 07:31:51;;;;;;;20.17;10.23;;;0.10;99.70;;;;;;5059595;28;20216;-85
2023/01/27 07:34:18;;;;;;;16.23;9.23;;;0.10;99.90;;;;;;5058632;28;20236;-87
2023/01/27 07:36:45;;;;;;;16.33;9.63;;;0.10;99.90;;;;;;5064978;28;20217;-88
2023/01/27 07:39:12;;;;;;;21.27;9.77;;;0.10;99.20;;;;;;5040045;28;20205;-87
2023/01/27 07:41:39;;;;;;;22.13;10.13;;;0.00;99.20;;;;;;5041146;28;20214;-88
2023/01/27 07:44:07;;;;;;;20.03;10.30;;;0.00;99.20;;;;;;5068272;28;20217;-87
2023/01/27 07:46:34;;;;;;;20.33;9.13;;;0.10;99.20;;;;;;5064121;28;20324;-87
2023/01/27 07:49:01;;;;;;;23.67;9.97;;;0.10;99.20;;;;;;5062447;28;20209;-87
2023/01/27 07:51:28;;;;;;;22.47;10.67;;;0.10;99.30;;;;;;5064141;28;20283;-88
2023/01/27 07:53:54;;;;;;;22.23;10.73;;;0.10;99.40;;;;;;5071101;28;20283;-88
2023/01/27 07:56:21;;;;;;;17.17;10.07;;;0.20;99.30;;;;;;5069573;28;20216;-88
2023/01/27 07:58:48;;;;;;;20.10;10.57;;;0.20;99.20;;;;;;5068936;28;20201;-88
2023/01/27 08:01:16;;;;;;;21.43;10.33;;;0.20;99.40;;;;;;5075024;28;20294;-88
2023/01/27 08:03:43;;;;;;;16.43;9.70;;;0.30;99.20;;;;;;5064454;28;20229;-87
2023/01/27 08:06:12;;;;;;;14.93;8.53;;;0.30;99.20;;;;;;5069554;28;20197;-87
2023/01/27 08:08:39;;;;;;;18.67;10.17;;;0.30;98.80;;;;;;5065226;28;20212;-87
2023/01/27 08:11:08;;;;;;;18.30;10.13;;;0.20;98.80;;;;;;5069997;28;20276;-86
2023/01/27 08:13:36;;;;;;;15.87;9.23;;;0.30;99.20;;;;;;5064407;28;20209;-87
2023/01/27 08:16:05;;;;;;;18.17;9.93;;;0.40;99.10;;;;;;5067901;28;20228;-86
2023/01/27 08:18:36;;;;;;;18.30;10.13;;;0.40;98.80;;;;;;5062494;28;20198;-89
2023/01/27 08:21:04;;;;;;;15.63;9.20;;;0.50;98.70;;;;;;5067505;28;20642;-87
2023/01/27 08:23:32;;;;;;;14.63;8.70;;;0.60;98.40;;;;;;5067871;28;20233;-86
2023/01/27 08:26:01;;;;;;;17.33;9.80;;;0.60;98.20;;;;;;5070769;28;20856;-84
2023/01/27 08:28:30;;;;;;;15.23;9.10;;;0.60;97.70;;;;;;5073737;28;20201;-86
2023/01/27 08:31:04;;;;;;;14.43;8.33;;;0.60;97.70;;;;;;5073025;28;20201;-87
2023/01/27 08:33:33;;;;;;;16.87;9.67;;;0.70;97.20;;;;;;5070437;28;20193;-88
2023/01/27 08:36:04;;;;;;;17.07;9.60;;;0.70;97.20;;;;;;5075108;28;20244;-88
2023/01/27 08:38:33;;;;;;;20.97;10.10;;;0.70;97.30;;;;;;5073180;28;20201;-86
2023/01/27 08:41:04;;;;;;;21.53;10.10;;;0.60;97.70;;;;;;5073353;28;20197;-88
2023/01/27 08:43:31;;;;;;;18.83;9.87;;;0.50;97.70;;;;;;5041466;28;20204;-87
2023/01/27 08:45:59;;;;;;;19.93;10.43;;;0.60;97.70;;;;;;5072334;28;20204;-88
2023/01/27 08:48:26;;;;;;;20.03;9.70;;;0.50;97.80;;;;;;5069033;28;20205;-87
2023/01/27 08:50:54;;;;;;;18.13;9.93;;;0.50;98.40;;;;;;5066999;28;20673;-90
2023/01/27 08:53:21;;;;;;;18.20;9.80;;;0.50;98.60;;;;;;5066848;28;20202;-87
2023/01/27 08:55:48;;;;;;;20.33;9.97;;;0.50;98.30;;;;;;5068133;28;20197;-86
2023/01/27 08:58:16;;;;;;;21.27;10.47;;;0.60;98.30;;;;;;5059669;28;20209;-85
2023/01/27 09:00:42;;;;;;;18.67;9.27;;;0.70;98.10;;;;;;5065415;28;20214;-85
2023/01/27 09:03:09;;;;;;;18.17;9.57;;;0.70;98.20;;;;;;5066522;28;20572;-86
2023/01/27 09:05:37;;;;;;;20.37;10.27;;;0.80;97.80;;;;;;5050344;28;20232;-86
2023/01/27 09:08:06;;;;;;;19.93;9.90;;;0.80;97.80;;;;;;5070155;28;20217;-86
2023/01/27 09:10:36;;;;;;;19.83;10.00;;;0.90;98.10;;;;;;5063587;28;20292;-86
2023/01/27 09:13:03;;;;;;;19.60;9.93;;;0.90;97.60;;;;;;5061725;28;20202;-87
2023/01/27 09:15:30;;;;;;;17.47;10.17;;;0.90;97.70;;;;;;5065221;28;20236;-86
2023/01/27 09:17:57;;;;;;;19.00;9.90;;;1.00;97.70;;;;;;5061604;28;20198;-87
2023/01/27 09:20:24;;;;;;;16.60;9.43;;;1.10;97.10;;;;;;5062984;28;20208;-87
2023/01/27 09:22:50;;;;;;;15.93;9.07;;;1.10;97.20;;;;;;5059579;28;20221;-87
2023/01/27 09:25:19;;;;;;;16.23;9.30;;;1.20;96.60;;;;;;5065525;28;20230;-86
2023/01/27 09:27:45;;;;;;;15.90;9.60;;;1.30;96.10;;;;;;5056813;28;20194;-85
2023/01/27 09:30:14;;;;;;;16.30;9.13;;;1.20;96.30;;;;;;5060788;28;20220;-85
2023/01/27 09:32:42;;;;;;;14.70;8.60;;;1.10;96.50;;;;;;5063385;28;20216;-86
2023/01/27 09:35:09;;;;;;;15.90;8.80;;;1.20;96.20;;;;;;5060754;28;20725;-86
2023/01/27 09:37:42;;;;;;;16.33;9.23;;;1.10;96.00;;;;;;5058773;28;20653;-85
2023/01/27 09:40:18;;;;;;;17.87;10.33;;;1.10;96.30;;;;;;5053016;28;20666;-85
2023/01/27 09:43:10;;;;;;;14.40;9.13;;;1.10;96.50;;;;;;5061985;28;20205;-85
2023/01/27 09:45:48;;;;;;;18.90;9.67;;;1.30;96.30;;;;;;5057711;28;20225;-85
2023/01/27 09:48:37;;;;;;;15.40;8.40;;;1.40;95.40;;;;;;5061562;28;20205;-85
2023/01/27 09:51:12;;;;;;;14.80;9.33;;;1.50;95.20;;;;;;5058250;28;20214;-85
2023/01/27 09:54:02;;;;;;;14.13;8.80;;;1.50;94.70;;;;;;5056063;28;20193;-87
2023/01/27 09:56:43;;;;;;;14.87;8.47;;;1.40;95.20;;;;;;5067170;28;20194;-86
2023/01/27 09:59:26;;;;;;;14.77;9.27;;;1.30;95.70;;;;;;5062366;28;20201;-85
2023/01/27 10:02:03;;;;;;;19.80;9.97;;;1.20;96.30;;;;;;5064074;28;20197;-87
2023/01/27 10:04:48;;;;;;;16.20;9.93;;;1.00;96.80;;;;;;5063002;28;20228;-87
2023/01/27 10:07:32;;;;;;;15.77;8.87;;;1.00;96.90;;;;;;5064218;28;20197;-86
2023/01/27 10:10:20;;;;;;;17.73;9.20;;;1.00;96.90;;;;;;5059396;28;20658;-87
2023/01/27 10:12:59;;;;;;;16.57;9.73;;;1.00;96.80;;;;;;5058485;28;20654;-89
2023/01/27 10:15:39;;;;;;;19.20;9.67;;;1.00;96.60;;;;;;5059997;28;20209;-89
2023/01/27 10:18:17;;;;;;;19.00;8.90;;;1.00;96.80;;;;;;5058984;28;20201;-88
2023/01/27 10:20:51;;;;;;;16.40;10.07;;;1.10;96.40;;;;;;5052162;28;20193;-87
2023/01/27 10:23:28;;;;;;;16.10;10.00;;;1.10;95.90;;;;;;5072455;28;20220;-86
2023/01/27 10:26:04;;;;;;;19.77;10.13;;;1.20;96.00;;;;;;5053614;28;20228;-88
2023/01/27 10:28:34;;;;;;;15.97;9.60;;;1.20;96.00;;;;;;5053414;28;20323;-87
2023/01/27 10:31:06;;;;;;;17.77;9.43;;;1.10;96.30;;;;;;5070174;28;20291;-87
2023/01/27 10:33:46;;;;;;;21.03;10.37;;;1.10;96.10;;;;;;5068766;28;20251;-89
2023/01/27 10:36:23;;;;;;;24.20;10.07;;;1.00;96.80;;;;;;5060558;28;20205;-86
2023/01/27 10:38:58;;;;;;;17.97;9.17;;;1.00;96.70;;;;;;5064694;28;20288;-87
2023/01/27 10:41:34;;;;;;;16.73;9.10;;;1.10;96.80;;;;;;5064656;28;20562;-86
2023/01/27 10:44:17;;;;;;;18.20;9.63;;;1.20;96.10;;;;;;5067951;28;20196;-86
2023/01/27 10:46:54;;;;;;;16.90;9.33;;;1.10;96.10;;;;;;5063023;28;20197;-87
2023/01/27 10:49:25;;;;;;;19.10;9.30;;;1.10;95.90;;;;;;5069755;28;20196;-86
2023/01/27 10:51:57;;;;;;;16.63;9.07;;;1.10;95.60;;;;;;5072035;28;20542;-87
2023/01/27 10:54:31;;;;;;;15.90;9.17;;;0.90;95.80;;;;;;5047239;28;20212;-85
2023/01/27 10:57:04;;;;;;;15.43;9.13;;;0.90;96.30;;;;;;5043284;28;20307;-87
2023/01/27 10:59:37;;;;;;;19.27;10.10;;;0.80;96.30;;;;;;5066635;28;20855;-86
2023/01/27 11:02:14;;;;;;;15.73;9.43;;;0.80;96.60;;;;;;5056940;28;20197;-88
2023/01/27 11:04:44;;;;;;;18.70;9.63;;;0.80;97.10;;;;;;5070957;28;20212;-85
2023/01/27 11:07:16;;;;;;;17.53;8.97;;;0.90;96.90;;;;;;5063759;28;20201;-85
2023/01/27 11:09:49;;;;;;;17.00;9.47;;;0.90;96.70;;;;;;5055729;28;20208;-87
2023/01/27 11:12:20;;;;;;;14.33;8.77;;;1.00;96.40;;;;;;5061188;28;20204;-84
2023/01/27 11:14:49;;;;;;;17.20;9.77;;;1.00;95.90;;;;;;5061630;28;20197;-84
2023/01/27 11:17:25;;;;;;;14.73;9.13;;;1.00;95.90;;;;;;5062236;28;20733;-87
2023/01/27 11:20:00;;;;;;;16.30;9.80;;;1.00;95.60;;;;;;5066552;28;20545;-85
2023/01/27 11:22:33;;;;;;;22.70;9.33;;;0.90;96.40;;;;;;5065706;28;20467;-85
2023/01/27 11:25:07;;;;;;;17.07;9.20;;;0.90;96.80;;;;;;5059201;28;20769;-85
2023/01/27 11:28:03;;;;;;;12.57;8.37;;;0.90;96.10;;;;;;5073491;28;20637;-84
2023/01/27 11:31:17;;;;;;;17.17;9.57;;;0.80;95.50;;;;;;5068994;28;20189;-85
2023/01/27 11:33:56;;;;;;;13.87;8.13;;;0.80;96.20;;;;;;5064985;28;20194;-85
2023/01/27 11:36:24;;;;;;;13.43;7.67;;;0.80;95.90;;;;;;5069085;28;20197;-84
2023/01/27 11:38:53;;;;;;;13.37;8.30;;;0.90;95.60;;;;;;5070181;28;20204;-84
2023/01/27 11:41:20;;;;;;;14.77;8.97;;;0.90;95.10;;;;;;5059705;28;20547;-84
2023/01/27 11:43:47;;;;;;;13.83;8.60;;;0.80;95.30;;;;;;5070728;28;20614;-85
2023/01/27 11:46:19;;;;;;;14.37;8.83;;;0.90;94.70;;;;;;5060682;28;20389;-89
2023/01/27 11:48:50;;;;;;;14.57;8.43;;;0.90;94.90;;;;;;5038660;28;20505;-85
2023/01/27 11:51:21;;;;;;;13.67;8.40;;;0.90;95.00;;;;;;5065458;28;20200;-85
2023/01/27 11:53:53;;;;;;;15.27;9.13;;;0.90;95.00;;;;;;5068522;28;20266;-87
2023/01/27 11:56:21;;;;;;;16.10;9.07;;;0.80;95.40;;;;;;5068136;28;20235;-87
2023/01/27 11:58:55;;;;;;;16.40;9.47;;;0.90;95.90;;;;;;5053467;28;20209;-88
2023/01/27 12:01:28;;;;;;;16.93;9.83;;;0.80;95.50;;;;;;5073124;28;20879;-88
2023/01/27 12:04:03;;;;;;;15.03;9.37;;;0.80;95.50;;;;;;5060223;28;20201;-87
2023/01/27 12:06:36;;;;;;;17.87;9.67;;;0.80;95.70;;;;;;5053670;28;20216;-87
2023/01/27 12:09:03;;;;;;;15.50;8.93;;;1.00;95.50;;;;;;5058220;28;20303;-86
2023/01/27 12:11:36;;;;;;;13.53;8.57;;;1.10;95.40;;;;;;5052744;28;20453;-86
2023/01/27 12:14:05;;;;;;;16.93;9.23;;;1.20;94.30;;;;;;5066087;28;20296;-88
2023/01/27 12:16:44;;;;;;;16.73;9.07;;;1.20;94.30;;;;;;5066398;28;20263;-86
2023/01/27 12:19:27;;;;;;;13.43;8.03;;;1.20;94.30;;;;;;5062319;28;20288;-86
2023/01/27 12:21:58;;;;;;;17.53;9.10;;;1.40;94.30;;;;;;5065732;28;20554;-88
2023/01/27 12:24:29;;;;;;;15.07;9.03;;;1.40;94.30;;;;;;5059380;28;20221;-87
2023/01/27 12:26:57;;;;;;;16.27;9.23;;;1.40;94.30;;;;;;5061322;28;20201;-87
2023/01/27 12:29:28;;;;;;;18.10;9.80;;;1.30;94.30;;;;;;5068998;28;20205;-90
2023/01/27 12:31:59;;;;;;;14.17;9.23;;;1.30;94.30;;;;;;5073220;28;20229;-88
2023/01/27 12:34:35;;;;;;;15.63;8.23;;;1.50;94.30;;;;;;5069007;28;20429;-87
2023/01/27 12:37:05;;;;;;;12.53;8.33;;;1.50;94.20;;;;;;5069558;28;20199;-87
2023/01/27 12:39:41;;;;;;;14.37;8.40;;;1.60;92.70;;;;;;5071691;28;20205;-88
2023/01/27 12:42:37;;;;;;;16.27;9.23;;;1.60;93.00;;;;;;5061717;28;20209;-90
2023/01/27 12:45:26;;;;;;;14.57;8.87;;;1.70;92.50;;;;;;5060947;28;20967;-88
2023/01/27 12:48:02;;;;;;;15.67;8.80;;;1.70;92.50;;;;;;5061633;28;20206;-89
2023/01/27 12:50:32;;;;;;;15.03;9.00;;;1.60;93.00;;;;;;5058063;28;20205;-89
2023/01/27 12:53:11;;;;;;;14.10;9.70;;;1.40;93.20;;;;;;5069258;28;20200;-91
2023/01/27 12:55:41;;;;;;;13.40;8.70;;;1.50;93.80;;;;;;5077133;28;20197;-90
2023/01/27 12:58:32;;;;;;;16.40;9.20;;;1.60;93.50;;;;;;5068113;28;20213;-88
2023/01/27 13:01:00;;;;;;;16.83;9.37;;;1.60;93.50;;;;;;5067281;28;20195;-88
2023/01/27 13:03:28;;;;;;;17.73;10.00;;;1.50;94.00;;;;;;5056766;28;20216;-88
2023/01/27 13:05:59;;;;;;;18.63;10.87;;;1.50;93.90;;;;;;5061102;28;20698;-89
2023/01/27 13:08:28;;;;;;;15.83;9.67;;;1.50;93.50;;;;;;5059246;28;20213;-89
2023/01/27 13:10:58;;;;;;;15.77;9.03;;;1.50;93.30;;;;;;5063199;28;20259;-88
2023/01/27 13:13:26;;;;;;;15.03;8.60;;;1.60;92.60;;;;;;5062562;28;20670;-91
2023/01/27 13:15:56;;;;;;;14.73;9.87;;;1.70;92.70;;;;;;5066705;28;20198;-88
2023/01/27 13:18:23;;;;;;;15.73;10.00;;;1.70;93.30;;;;;;5062866;28;20303;-88
2023/01/27 13:20:54;;;;;;;17.57;10.13;;;1.70;93.50;;;;;;5066266;28;20193;-88
2023/01/27 13:23:26;;;;;;;18.93;10.53;;;1.60;93.70;;;;;;5066455;28;20582;-87
2023/01/27 13:25:58;;;;;;;18.13;10.80;;;1.60;93.80;;;;;;5063033;28;20210;-87
2023/01/27 13:28:29;;;;;;;18.77;10.20;;;1.50;94.30;;;;;;5070277;28;20280;-87